createdAt,value
2018-01-06T00:01:54.247Z,4.72
2018-01-06T00:04:20.010Z,4.72
2018-01-06T00:06:45.798Z,4.72
2018-01-06T00:09:11.566Z,4.73
2018-01-06T00:11:37.319Z,4.83
2018-01-06T00:14:03.072Z,4.89
2018-01-06T00:16:29.687Z,4.81
2018-01-06T00:18:55.435Z,4.85
2018-01-06T00:21:21.222Z,4.90
2018-01-06T00:23:46.967Z,5.00
2018-01-06T00:26:12.721Z,5.03
2018-01-06T00:28:38.463Z,5.05
2018-01-06T00:31:04.240Z,5.00
2018-01-06T00:33:29.999Z,5.02
2018-01-06T00:35:55.780Z,4.99
2018-01-06T00:38:21.568Z,5.06
2018-01-06T00:40:48.108Z,5.09
2018-01-06T00:43:13.878Z,5.05
2018-01-06T00:45:41.534Z,4.99
2018-01-06T00:48:07.304Z,5.04
2018-01-06T00:50:33.050Z,5.11
2018-01-06T00:52:58.818Z,5.12
2018-01-06T00:55:24.575Z,5.03
2018-01-06T00:57:50.322Z,5.01
2018-01-06T01:00:16.079Z,5.03
2018-01-06T01:02:41.940Z,5.08
2018-01-06T01:05:07.750Z,5.04
2018-01-06T01:07:33.566Z,5.04
2018-01-06T01:09:59.315Z,5.03
2018-01-06T01:12:25.166Z,5.03
2018-01-06T01:14:50.917Z,5.06
2018-01-06T01:17:16.662Z,5.07
2018-01-06T01:19:42.418Z,5.06
2018-01-06T01:22:08.176Z,5.09
2018-01-06T01:24:33.943Z,5.14
2018-01-06T01:26:59.715Z,5.14
2018-01-06T01:29:25.482Z,5.13
2018-01-06T01:31:51.332Z,5.12
2018-01-06T01:34:17.121Z,5.12
2018-01-06T01:36:42.871Z,5.12
2018-01-06T01:39:08.646Z,5.08
2018-01-06T01:41:34.411Z,5.06
2018-01-06T01:44:00.182Z,4.88
2018-01-06T01:46:25.930Z,4.74
2018-01-06T01:48:51.704Z,4.61
2018-01-06T01:51:17.446Z,4.53
2018-01-06T01:53:43.202Z,4.63
2018-01-06T01:56:08.951Z,4.77
2018-01-06T01:58:34.705Z,4.89
2018-01-06T02:01:00.452Z,4.95
2018-01-06T02:03:26.238Z,5.00
2018-01-06T02:05:51.986Z,5.09
2018-01-06T02:08:17.739Z,5.08
2018-01-06T02:10:43.495Z,5.06
2018-01-06T02:13:09.248Z,5.04
2018-01-06T02:15:35.015Z,5.11
2018-01-06T02:18:00.777Z,5.12
2018-01-06T02:20:26.538Z,5.10
2018-01-06T02:22:52.294Z,5.07
2018-01-06T02:25:18.052Z,5.09
2018-01-06T02:27:43.807Z,5.11
2018-01-06T02:30:09.570Z,5.14
2018-01-06T02:32:35.312Z,5.11
2018-01-06T02:35:01.066Z,5.12
2018-01-06T02:37:26.811Z,5.12
2018-01-06T02:39:52.570Z,5.15
2018-01-06T02:42:18.323Z,5.17
2018-01-06T02:44:44.101Z,5.17
2018-01-06T02:47:09.854Z,5.20
2018-01-06T02:49:35.629Z,5.19
2018-01-06T02:52:01.383Z,5.19
2018-01-06T02:54:27.149Z,5.23
2018-01-06T02:56:59.967Z,5.22
2018-01-06T02:59:25.747Z,5.25
2018-01-06T03:01:51.512Z,5.26
2018-01-06T03:04:17.262Z,5.30
2018-01-06T03:06:43.017Z,5.28
2018-01-06T03:09:08.762Z,5.30
2018-01-06T03:11:34.515Z,5.31
2018-01-06T03:14:00.259Z,5.30
2018-01-06T03:16:26.012Z,5.32
2018-01-06T03:18:51.755Z,5.33
2018-01-06T03:21:17.507Z,5.31
2018-01-06T03:23:43.264Z,5.30
2018-01-06T03:26:09.027Z,5.32
2018-01-06T03:28:34.778Z,5.31
2018-01-06T03:31:00.536Z,5.32
2018-01-06T03:33:26.293Z,5.31
2018-01-06T03:35:52.058Z,5.29
2018-01-06T03:38:17.807Z,5.30
2018-01-06T03:40:43.566Z,5.31
2018-01-06T03:43:09.318Z,5.34
2018-01-06T03:45:35.079Z,5.38
2018-01-06T03:48:00.830Z,5.35
2018-01-06T03:50:26.587Z,5.38
2018-01-06T03:52:52.346Z,5.34
2018-01-06T03:55:18.107Z,5.36
2018-01-06T03:57:43.876Z,5.41
2018-01-06T04:00:09.644Z,5.40
2018-01-06T04:02:35.395Z,5.41
2018-01-06T04:05:01.948Z,5.41
2018-01-06T04:07:27.711Z,5.42
2018-01-06T04:09:53.467Z,5.43
2018-01-06T04:12:19.238Z,5.42
2018-01-06T04:14:44.993Z,5.45
2018-01-06T04:17:10.767Z,5.47
2018-01-06T04:19:36.525Z,5.48
2018-01-06T04:22:02.294Z,5.50
2018-01-06T04:24:28.059Z,5.48
2018-01-06T04:26:53.827Z,5.52
2018-01-06T04:29:19.595Z,5.52
2018-01-06T04:31:45.367Z,5.57
2018-01-06T04:34:11.126Z,5.58
2018-01-06T04:36:36.892Z,5.59
2018-01-06T04:39:02.671Z,5.60
2018-01-06T04:41:28.431Z,5.63
2018-01-06T04:43:54.200Z,5.62
2018-01-06T04:46:19.972Z,5.64
2018-01-06T04:48:45.742Z,5.66
2018-01-06T04:51:11.506Z,5.71
2018-01-06T04:53:37.286Z,5.65
2018-01-06T04:56:03.046Z,5.65
2018-01-06T04:58:28.818Z,5.65
2018-01-06T05:00:54.582Z,5.64
2018-01-06T05:03:20.355Z,5.63
2018-01-06T05:05:46.114Z,5.68
2018-01-06T05:08:11.904Z,5.66
2018-01-06T05:10:37.658Z,5.69
2018-01-06T05:13:03.415Z,5.65
2018-01-06T05:15:29.183Z,5.64
2018-01-06T05:17:54.967Z,5.65
2018-01-06T05:20:20.724Z,5.58
2018-01-06T05:22:46.468Z,5.57
2018-01-06T05:25:12.226Z,5.60
2018-01-06T05:27:37.983Z,5.62
2018-01-06T05:30:03.769Z,5.62
2018-01-06T05:32:29.521Z,5.57
2018-01-06T05:34:55.295Z,5.56
2018-01-06T05:37:21.057Z,5.58
2018-01-06T05:39:46.823Z,5.53
2018-01-06T05:42:12.587Z,5.57
2018-01-06T05:44:38.360Z,5.57
2018-01-06T05:47:04.119Z,5.57
2018-01-06T05:49:29.872Z,5.56
2018-01-06T05:51:55.615Z,5.59
2018-01-06T05:54:21.372Z,5.57
2018-01-06T05:56:47.128Z,5.59
2018-01-06T05:59:12.886Z,5.57
2018-01-06T06:01:38.632Z,5.53
2018-01-06T06:04:04.383Z,5.51
2018-01-06T06:06:30.167Z,5.48
2018-01-06T06:08:55.920Z,5.45
2018-01-06T06:11:21.671Z,5.42
2018-01-06T06:13:47.408Z,5.41
2018-01-06T06:16:13.184Z,5.36
2018-01-06T06:18:38.942Z,5.28
2018-01-06T06:21:04.695Z,5.25
2018-01-06T06:23:30.451Z,5.31
2018-01-06T06:25:56.210Z,5.30
2018-01-06T06:28:21.958Z,5.32
2018-01-06T06:30:47.708Z,5.34
2018-01-06T06:33:13.450Z,5.34
2018-01-06T06:35:39.212Z,5.36
2018-01-06T06:38:04.974Z,5.43
2018-01-06T06:40:30.748Z,5.41
2018-01-06T06:42:56.517Z,5.39
2018-01-06T06:45:22.281Z,5.30
2018-01-06T06:47:48.039Z,5.32
2018-01-06T06:50:13.792Z,5.40
2018-01-06T06:52:39.559Z,5.40
2018-01-06T06:55:05.322Z,5.41
2018-01-06T06:57:31.101Z,5.43
2018-01-06T06:59:56.873Z,5.42
2018-01-06T07:02:22.630Z,5.40
2018-01-06T07:04:48.387Z,5.45
2018-01-06T07:07:14.159Z,5.42
2018-01-06T07:09:39.921Z,5.42
2018-01-06T07:12:05.716Z,5.42
2018-01-06T07:14:31.467Z,5.43
2018-01-06T07:16:57.215Z,5.40
2018-01-06T07:19:22.970Z,5.40
2018-01-06T07:21:48.723Z,5.37
2018-01-06T07:24:14.485Z,5.34
2018-01-06T07:26:40.231Z,5.35
2018-01-06T07:29:05.987Z,5.35
2018-01-06T07:31:31.730Z,5.35
2018-01-06T07:33:57.491Z,5.35
2018-01-06T07:36:23.251Z,5.37
2018-01-06T07:38:49.005Z,5.39
2018-01-06T07:41:14.765Z,5.34
2018-01-06T07:43:40.544Z,5.35
2018-01-06T07:46:06.278Z,5.37
2018-01-06T07:48:32.047Z,5.35
2018-01-06T07:50:57.816Z,5.39
2018-01-06T07:53:23.595Z,5.40
2018-01-06T07:55:49.344Z,5.42
2018-01-06T07:58:15.078Z,5.43
2018-01-06T08:00:40.831Z,5.41
2018-01-06T08:03:06.583Z,5.44
2018-01-06T08:05:32.346Z,5.46
2018-01-06T08:07:58.098Z,5.45
2018-01-06T08:10:23.863Z,5.45
2018-01-06T08:12:49.623Z,5.47
2018-01-06T08:15:15.443Z,5.49
2018-01-06T08:17:41.146Z,5.52
2018-01-06T08:20:06.912Z,5.51
2018-01-06T08:22:32.650Z,5.48
2018-01-06T08:24:58.410Z,5.48
2018-01-06T08:27:24.180Z,5.49
2018-01-06T08:29:49.977Z,5.52
2018-01-06T08:32:15.731Z,5.49
2018-01-06T08:34:41.490Z,5.52
2018-01-06T08:37:07.263Z,5.52
2018-01-06T08:39:33.023Z,5.53
2018-01-06T08:41:58.790Z,5.50
2018-01-06T08:44:24.553Z,5.48
2018-01-06T08:46:50.316Z,5.50
2018-01-06T08:49:16.071Z,5.48
2018-01-06T08:51:41.830Z,5.50
2018-01-06T08:54:07.596Z,5.52
2018-01-06T08:56:33.368Z,5.51
2018-01-06T08:58:59.122Z,5.50
2018-01-06T09:01:24.858Z,5.51
2018-01-06T09:03:50.607Z,5.51
2018-01-06T09:06:16.368Z,5.54
2018-01-06T09:08:42.136Z,5.59
2018-01-06T09:11:07.891Z,5.58
2018-01-06T09:13:33.665Z,5.56
2018-01-06T09:15:59.426Z,5.56
2018-01-06T09:18:26.023Z,5.56
2018-01-06T09:20:53.082Z,5.60
2018-01-06T09:23:18.884Z,5.59
2018-01-06T09:25:44.634Z,5.61
2018-01-06T09:28:10.395Z,5.63
2018-01-06T09:30:36.147Z,5.64
2018-01-06T09:33:02.241Z,5.63
2018-01-06T09:35:28.316Z,5.63
2018-01-06T09:37:54.442Z,5.65
2018-01-06T09:40:20.597Z,5.69
2018-01-06T09:42:46.869Z,5.70
2018-01-06T09:45:12.972Z,5.65
2018-01-06T09:47:39.104Z,5.67
2018-01-06T09:50:05.120Z,5.70
2018-01-06T09:52:31.215Z,5.67
2018-01-06T09:54:57.441Z,5.66
2018-01-06T09:57:23.732Z,5.70
2018-01-06T09:59:50.226Z,5.72
2018-01-06T10:02:16.363Z,5.72
2018-01-06T10:04:42.495Z,5.73
2018-01-06T10:07:08.275Z,5.74
2018-01-06T10:09:34.050Z,5.29
2018-01-06T10:11:59.898Z,4.79
2018-01-06T10:14:26.112Z,4.38
2018-01-06T10:16:53.075Z,4.24
2018-01-06T10:19:19.299Z,4.21
2018-01-06T10:21:45.404Z,4.22
2018-01-06T10:24:11.507Z,4.09
2018-01-06T10:26:37.575Z,4.03
2018-01-06T10:29:03.804Z,4.04
2018-01-06T10:31:30.894Z,3.93
2018-01-06T10:33:57.955Z,3.91
2018-01-06T10:36:25.120Z,3.95
2018-01-06T10:38:51.487Z,3.90
2018-01-06T10:41:18.820Z,4.01
2018-01-06T10:43:44.982Z,3.96
2018-01-06T10:46:11.165Z,3.99
2018-01-06T10:48:37.357Z,4.00
2018-01-06T10:51:03.601Z,4.02
2018-01-06T10:53:29.804Z,4.08
2018-01-06T10:55:55.960Z,4.03
2018-01-06T10:58:22.102Z,4.06
2018-01-06T11:00:54.022Z,4.06
2018-01-06T11:03:19.762Z,4.03
2018-01-06T11:05:45.507Z,4.05
2018-01-06T11:08:11.246Z,4.03
2018-01-06T11:10:37.020Z,3.92
2018-01-06T11:13:02.785Z,3.92
2018-01-06T11:15:28.562Z,3.93
2018-01-06T11:17:54.321Z,3.96
2018-01-06T11:20:20.091Z,3.94
2018-01-06T11:22:45.855Z,4.00
2018-01-06T11:25:11.622Z,3.91
2018-01-06T11:27:37.371Z,4.00
2018-01-06T11:30:03.123Z,3.85
2018-01-06T11:32:28.900Z,3.91
2018-01-06T11:34:54.651Z,3.85
2018-01-06T11:37:20.419Z,3.87
2018-01-06T11:39:46.171Z,3.89
2018-01-06T11:42:11.933Z,3.89
2018-01-06T11:44:37.706Z,3.85
2018-01-06T11:47:03.465Z,3.80
2018-01-06T11:49:29.215Z,3.86
2018-01-06T11:51:54.982Z,3.88
2018-01-06T11:54:20.740Z,3.95
2018-01-06T11:56:46.507Z,3.98
2018-01-06T11:59:12.262Z,3.89
2018-01-06T12:01:38.042Z,3.83
2018-01-06T12:04:03.819Z,3.87
2018-01-06T12:06:29.584Z,3.84
2018-01-06T12:08:55.348Z,3.86
2018-01-06T12:11:21.108Z,3.84
2018-01-06T12:13:46.863Z,3.91
2018-01-06T12:16:12.616Z,3.87
2018-01-06T12:18:38.383Z,3.94
2018-01-06T12:21:04.160Z,3.92
2018-01-06T12:23:29.915Z,3.85
2018-01-06T12:25:55.671Z,3.86
2018-01-06T12:28:21.427Z,3.96
2018-01-06T12:30:47.191Z,3.97
2018-01-06T12:33:13.012Z,4.06
2018-01-06T12:35:38.763Z,4.13
2018-01-06T12:38:04.959Z,4.11
2018-01-06T12:40:30.735Z,4.15
2018-01-06T12:42:56.500Z,4.16
2018-01-06T12:45:22.270Z,4.17
2018-01-06T12:47:48.084Z,4.16
2018-01-06T12:50:13.868Z,4.09
2018-01-06T12:52:39.679Z,4.19
2018-01-06T12:55:05.405Z,4.21
2018-01-06T12:57:31.182Z,4.25
2018-01-06T12:59:56.954Z,4.25
2018-01-06T13:02:22.723Z,4.19
2018-01-06T13:04:48.519Z,4.28
2018-01-06T13:07:14.267Z,4.30
2018-01-06T13:09:40.045Z,4.37
2018-01-06T13:12:05.798Z,4.28
2018-01-06T13:14:31.562Z,4.26
2018-01-06T13:16:58.048Z,4.22
2018-01-06T13:19:23.819Z,4.20
2018-01-06T13:21:49.575Z,4.23
2018-01-06T13:24:15.339Z,4.16
2018-01-06T13:26:41.105Z,4.12
2018-01-06T13:29:06.946Z,4.10
2018-01-06T13:31:32.675Z,4.13
2018-01-06T13:33:58.467Z,4.14
2018-01-06T13:36:24.210Z,4.18
2018-01-06T13:38:49.954Z,4.17
2018-01-06T13:41:15.785Z,4.17
2018-01-06T13:43:41.555Z,4.11
2018-01-06T13:46:07.339Z,4.09
2018-01-06T13:48:33.072Z,4.09
2018-01-06T13:50:58.848Z,4.01
2018-01-06T13:53:24.671Z,4.03
2018-01-06T13:55:50.436Z,4.03
2018-01-06T13:58:16.237Z,4.02
2018-01-06T14:00:42.070Z,4.02
2018-01-06T14:03:07.824Z,4.00
2018-01-06T14:05:33.600Z,4.00
2018-01-06T14:07:59.384Z,3.99
2018-01-06T14:10:25.202Z,3.96
2018-01-06T14:12:51.012Z,3.91
2018-01-06T14:15:16.777Z,3.87
2018-01-06T14:17:42.530Z,3.89
2018-01-06T14:20:08.309Z,3.90
2018-01-06T14:22:34.150Z,3.83
2018-01-06T14:24:59.911Z,3.81
2018-01-06T14:27:25.679Z,3.82
2018-01-06T14:29:51.423Z,3.80
2018-01-06T14:32:17.177Z,3.76
2018-01-06T14:34:42.939Z,3.77
2018-01-06T14:37:08.761Z,3.74
2018-01-06T14:39:34.573Z,3.76
2018-01-06T14:42:00.306Z,3.76
2018-01-06T14:44:26.064Z,3.69
2018-01-06T14:46:51.837Z,3.68
2018-01-06T14:49:17.619Z,3.71
2018-01-06T14:51:43.392Z,3.70
2018-01-06T14:54:09.163Z,3.67
2018-01-06T14:56:34.938Z,3.66
2018-01-06T14:59:00.771Z,3.64
2018-01-06T15:01:26.568Z,3.64
2018-01-06T15:03:52.381Z,3.63
2018-01-06T15:06:18.136Z,3.59
2018-01-06T15:08:43.957Z,3.59
2018-01-06T15:11:09.713Z,3.61
2018-01-06T15:13:35.537Z,3.61
2018-01-06T15:16:01.352Z,3.61
2018-01-06T15:18:27.158Z,3.60
2018-01-06T15:20:52.941Z,3.58
2018-01-06T15:23:18.716Z,3.55
2018-01-06T15:25:44.470Z,3.55
2018-01-06T15:28:10.264Z,3.53
2018-01-06T15:30:36.053Z,3.50
2018-01-06T15:33:01.806Z,3.47
2018-01-06T15:35:27.590Z,3.47
2018-01-06T15:37:53.465Z,3.43
2018-01-06T15:40:19.220Z,3.39
2018-01-06T15:42:44.990Z,3.31
2018-01-06T15:45:10.798Z,3.30
2018-01-06T15:47:36.567Z,3.29
2018-01-06T15:50:02.538Z,3.30
2018-01-06T15:52:28.303Z,3.29
2018-01-06T15:54:54.065Z,3.28
2018-01-06T15:57:19.814Z,3.31
2018-01-06T15:59:45.572Z,3.29
2018-01-06T16:02:11.341Z,3.29
2018-01-06T16:04:37.119Z,3.29
2018-01-06T16:07:02.947Z,3.30
2018-01-06T16:09:28.730Z,3.30
2018-01-06T16:11:54.503Z,3.35
2018-01-06T16:14:20.262Z,3.37
2018-01-06T16:16:46.074Z,3.45
2018-01-06T16:19:11.904Z,3.46
2018-01-06T16:21:37.659Z,3.42
2018-01-06T16:24:03.456Z,3.44
2018-01-06T16:26:29.211Z,3.42
2018-01-06T16:28:54.959Z,3.39
2018-01-06T16:31:20.770Z,3.38
2018-01-06T16:33:46.510Z,3.39
2018-01-06T16:36:12.270Z,3.38
2018-01-06T16:38:38.089Z,3.37
2018-01-06T16:41:03.957Z,3.39
2018-01-06T16:43:29.772Z,3.39
2018-01-06T16:45:55.583Z,3.41
2018-01-06T16:48:21.522Z,3.41
2018-01-06T16:50:47.313Z,3.57
2018-01-06T16:53:13.050Z,3.65
2018-01-06T16:55:38.801Z,3.60
2018-01-06T16:58:04.550Z,3.64
2018-01-06T17:00:30.310Z,3.63
2018-01-06T17:02:56.067Z,3.56
2018-01-06T17:05:21.822Z,3.50
2018-01-06T17:07:47.602Z,3.45
2018-01-06T17:10:13.363Z,3.42
2018-01-06T17:12:39.191Z,3.45
2018-01-06T17:15:04.903Z,3.43
2018-01-06T17:17:30.946Z,3.45
2018-01-06T17:19:56.708Z,3.42
2018-01-06T17:22:22.471Z,3.43
2018-01-06T17:24:48.211Z,3.43
2018-01-06T17:27:14.002Z,3.42
2018-01-06T17:29:39.718Z,3.43
2018-01-06T17:32:05.466Z,3.40
2018-01-06T17:34:31.219Z,3.45
2018-01-06T17:36:56.979Z,3.47
2018-01-06T17:39:22.735Z,3.45
2018-01-06T17:41:48.493Z,3.45
2018-01-06T17:44:14.242Z,3.47
2018-01-06T17:46:39.989Z,3.44
2018-01-06T17:49:06.135Z,3.45
2018-01-06T17:51:31.518Z,3.54
2018-01-06T17:53:57.258Z,3.53
2018-01-06T17:56:23.012Z,3.53
2018-01-06T17:58:48.851Z,3.45
2018-01-06T18:01:14.591Z,3.49
2018-01-06T18:03:40.340Z,3.48
2018-01-06T18:06:06.088Z,3.46
2018-01-06T18:08:31.846Z,3.44
2018-01-06T18:10:57.595Z,3.43
2018-01-06T18:13:23.350Z,3.41
2018-01-06T18:15:49.112Z,3.37
2018-01-06T18:18:14.865Z,3.38
2018-01-06T18:20:40.610Z,3.36
2018-01-06T18:23:06.351Z,3.37
2018-01-06T18:25:32.091Z,3.41
2018-01-06T18:27:57.838Z,3.40
2018-01-06T18:30:23.575Z,3.37
2018-01-06T18:32:49.311Z,3.38
2018-01-06T18:35:15.064Z,3.35
2018-01-06T18:37:40.810Z,3.35
2018-01-06T18:40:06.563Z,3.35
2018-01-06T18:42:32.329Z,3.32
2018-01-06T18:44:58.095Z,3.23
2018-01-06T18:47:23.847Z,3.14
2018-01-06T18:49:49.604Z,3.08
2018-01-06T18:52:15.346Z,3.02
2018-01-06T18:54:41.114Z,3.02
2018-01-06T18:57:13.783Z,3.00
2018-01-06T18:59:39.582Z,3.03
2018-01-06T19:02:05.287Z,3.02
2018-01-06T19:04:31.044Z,3.01
2018-01-06T19:06:56.782Z,3.02
2018-01-06T19:09:22.534Z,2.94
2018-01-06T19:11:48.289Z,2.95
2018-01-06T19:14:14.026Z,2.91
2018-01-06T19:16:39.778Z,2.80
2018-01-06T19:19:05.527Z,2.77
2018-01-06T19:21:31.286Z,2.66
2018-01-06T19:23:57.049Z,2.65
2018-01-06T19:26:22.803Z,2.57
2018-01-06T19:28:48.538Z,2.53
2018-01-06T19:31:14.294Z,2.48
2018-01-06T19:33:40.050Z,2.41
2018-01-06T19:36:05.826Z,2.35
2018-01-06T19:38:31.576Z,2.32
2018-01-06T19:40:57.343Z,2.24
2018-01-06T19:43:23.087Z,2.15
2018-01-06T19:45:48.838Z,2.15
2018-01-06T19:48:14.579Z,2.16
2018-01-06T19:50:40.347Z,2.15
2018-01-06T19:53:06.082Z,2.17
2018-01-06T19:55:31.842Z,2.22
2018-01-06T19:57:57.596Z,2.33
2018-01-06T20:00:23.333Z,2.46
2018-01-06T20:02:49.088Z,2.49
2018-01-06T20:05:14.843Z,2.53
2018-01-06T20:07:40.616Z,2.58
2018-01-06T20:10:06.380Z,2.60
2018-01-06T20:12:32.138Z,2.63
2018-01-06T20:14:57.891Z,2.62
2018-01-06T20:17:23.656Z,2.65
2018-01-06T20:19:49.416Z,2.66
2018-01-06T20:22:15.174Z,2.67
2018-01-06T20:24:40.932Z,2.63
2018-01-06T20:27:06.690Z,2.59
2018-01-06T20:29:32.453Z,2.53
2018-01-06T20:31:58.221Z,2.45
2018-01-06T20:34:23.958Z,2.40
2018-01-06T20:36:49.706Z,2.32
2018-01-06T20:39:15.450Z,2.33
2018-01-06T20:41:41.210Z,2.29
2018-01-06T20:44:06.967Z,2.26
2018-01-06T20:46:32.720Z,2.25
2018-01-06T20:48:58.482Z,2.22
2018-01-06T20:51:24.230Z,2.16
2018-01-06T20:53:49.987Z,2.15
2018-01-06T20:56:22.823Z,2.10
2018-01-06T20:58:48.599Z,2.08
2018-01-06T21:01:14.332Z,2.08
2018-01-06T21:03:40.088Z,2.09
2018-01-06T21:06:05.834Z,2.06
2018-01-06T21:08:31.586Z,2.04
2018-01-06T21:10:57.334Z,2.02
2018-01-06T21:13:23.078Z,1.97
2018-01-06T21:15:48.847Z,1.94
2018-01-06T21:18:14.612Z,1.85
2018-01-06T21:20:40.364Z,1.80
2018-01-06T21:23:06.131Z,1.74
2018-01-06T21:25:31.866Z,1.72
2018-01-06T21:27:57.643Z,1.74
2018-01-06T21:30:23.381Z,1.68
2018-01-06T21:32:49.116Z,1.60
2018-01-06T21:35:14.867Z,1.57
2018-01-06T21:37:40.609Z,1.58
2018-01-06T21:40:06.363Z,1.53
2018-01-06T21:42:32.128Z,1.47
2018-01-06T21:44:57.879Z,1.49
2018-01-06T21:47:23.634Z,1.46
2018-01-06T21:49:49.407Z,1.48
2018-01-06T21:52:15.151Z,1.48
2018-01-06T21:54:40.911Z,1.51
2018-01-06T21:57:06.658Z,1.49
2018-01-06T21:59:32.432Z,1.45
2018-01-06T22:01:58.187Z,1.47
2018-01-06T22:04:23.958Z,1.49
2018-01-06T22:06:49.709Z,1.45
2018-01-06T22:09:15.459Z,1.45
2018-01-06T22:11:41.222Z,1.44
2018-01-06T22:14:06.975Z,1.43
2018-01-06T22:16:32.747Z,1.35
2018-01-06T22:18:58.497Z,1.37
2018-01-06T22:21:24.250Z,1.37
2018-01-06T22:23:50.045Z,1.34
2018-01-06T22:26:15.809Z,1.34
2018-01-06T22:28:41.555Z,1.47
2018-01-06T22:31:07.306Z,1.34
2018-01-06T22:33:33.057Z,1.35
2018-01-06T22:35:58.832Z,1.33
2018-01-06T22:38:24.592Z,1.43
2018-01-06T22:40:50.355Z,1.37
2018-01-06T22:43:16.102Z,1.36
2018-01-06T22:45:41.866Z,1.34
2018-01-06T22:48:07.658Z,1.26
2018-01-06T22:50:33.429Z,1.30
2018-01-06T22:52:59.216Z,1.36
2018-01-06T22:55:24.970Z,1.33
2018-01-06T22:57:50.713Z,1.30
2018-01-06T23:00:16.474Z,1.32
2018-01-06T23:02:42.239Z,1.27
2018-01-06T23:05:07.978Z,1.32
2018-01-06T23:07:33.744Z,1.30
2018-01-06T23:09:59.511Z,1.27
2018-01-06T23:12:25.256Z,1.26
2018-01-06T23:14:51.010Z,1.24
2018-01-06T23:17:16.779Z,1.25
2018-01-06T23:19:42.535Z,1.23
2018-01-06T23:22:08.288Z,1.17
2018-01-06T23:24:34.046Z,1.13
2018-01-06T23:26:59.792Z,1.22
2018-01-06T23:29:25.538Z,1.09
2018-01-06T23:31:51.291Z,1.12
2018-01-06T23:34:17.050Z,1.02
2018-01-06T23:36:42.810Z,1.02
2018-01-06T23:39:08.566Z,1.03
2018-01-06T23:41:34.330Z,1.02
2018-01-06T23:44:00.091Z,0.97
2018-01-06T23:46:25.843Z,1.08
2018-01-06T23:48:51.615Z,1.07
2018-01-06T23:51:17.366Z,0.96
2018-01-06T23:53:43.123Z,0.95
2018-01-06T23:56:08.868Z,0.85
2018-01-06T23:58:34.638Z,0.89
